Time;durP1;ratioP1;P1;durP2;ratioP2;P2;SDS_P1;SDS_P2;PMS_P1;PMS_P2;Temp;Humidity;BMP_temperature;BMP_pressure;BME280_temperature;BME280_humidity;BME280_pressure;Samples;Min_cycle;Max_cycle;Signal;HPM_P1;HPM_P2
2022/01/17 00:02:01;;;;;;;19.30;2.50;;;;;;;6.60;98.56;103209.47;5027347;28;20090;-75
2022/01/17 00:04:26;;;;;;;15.45;2.42;;;;;;;6.50;97.97;103221.00;5025527;28;20500;-74
2022/01/17 00:06:51;;;;;;;16.27;2.60;;;;;;;6.43;97.99;103213.47;5022290;28;20030;-76
2022/01/17 00:09:18;;;;;;;18.70;2.22;;;;;;;6.36;97.23;103212.13;5019968;28;20021;-74
2022/01/17 00:11:48;;;;;;;18.42;2.38;;;;;;;6.27;96.74;103207.16;5022323;28;20485;-75
2022/01/17 00:14:17;;;;;;;16.45;2.03;;;;;;;6.22;96.50;103211.13;5022953;28;20033;-75
2022/01/17 00:16:49;;;;;;;12.55;1.90;;;;;;;6.14;96.85;103218.41;5026562;28;20033;-75
2022/01/17 00:21:51;;;;;;;12.18;1.65;;;;;;;6.00;97.01;103230.47;5021865;28;20038;-75
2022/01/17 00:24:18;;;;;;;14.98;2.00;;;;;;;5.94;97.20;103230.00;5024090;28;20095;-75
2022/01/17 00:26:44;;;;;;;11.93;1.80;;;;;;;5.87;97.84;103238.16;5021085;28;20029;-75
2022/01/17 00:29:09;;;;;;;17.90;2.17;;;;;;;5.80;98.07;103230.66;5024247;28;20037;-74
2022/01/17 00:31:35;;;;;;;17.73;2.13;;;;;;;5.79;98.55;103244.53;5023039;28;20049;-76
2022/01/17 00:34:00;;;;;;;9.57;1.75;;;;;;;5.76;98.62;103254.75;5020153;28;20068;-76
2022/01/17 00:36:25;;;;;;;22.15;2.88;;;;;;;5.69;99.25;103238.59;5024902;28;20025;-75
2022/01/17 00:38:51;;;;;;;22.90;2.83;;;;;;;5.66;98.97;103238.38;5014863;28;20121;-76
2022/01/17 00:41:16;;;;;;;14.50;2.13;;;;;;;5.61;99.25;103234.50;5024099;28;20041;-75
2022/01/17 00:43:41;;;;;;;16.92;2.03;;;;;;;5.56;100.00;103222.78;5022509;28;20025;-74
2022/01/17 00:46:07;;;;;;;16.83;2.17;;;;;;;5.53;99.37;103218.25;5024835;28;20052;-75
2022/01/17 00:48:32;;;;;;;13.68;2.10;;;;;;;5.49;100.00;103230.97;5025840;28;20064;-75
2022/01/17 00:50:57;;;;;;;20.55;3.10;;;;;;;5.46;100.00;103244.69;5024898;28;20029;-75
2022/01/17 00:53:23;;;;;;;25.08;2.15;;;;;;;5.43;100.00;103248.78;5019192;28;20034;-76
2022/01/17 00:55:48;;;;;;;22.55;3.10;;;;;;;5.39;100.00;103238.09;5029360;28;20045;-76
2022/01/17 00:58:14;;;;;;;9.70;1.92;;;;;;;5.37;100.00;103229.25;5025163;28;20029;-76
2022/01/17 01:00:41;;;;;;;22.45;2.67;;;;;;;5.35;100.00;103229.94;5021494;28;20022;-76
2022/01/17 01:03:07;;;;;;;15.88;1.83;;;;;;;5.36;100.00;103235.25;5015356;28;20112;-75
2022/01/17 01:05:34;;;;;;;16.42;1.80;;;;;;;5.35;100.00;103229.94;5025628;28;20045;-75
2022/01/17 01:07:59;;;;;;;10.63;2.30;;;;;;;5.36;100.00;103216.97;5010083;28;20379;-76
2022/01/17 01:10:25;;;;;;;13.60;1.80;;;;;;;5.34;99.90;103213.31;5027612;28;20043;-75
2022/01/17 01:12:51;;;;;;;9.25;2.60;;;;;;;5.29;100.00;103213.78;5027666;28;20029;-76
2022/01/17 01:15:34;;;;;;;20.05;1.98;;;;;;;5.26;100.00;103224.88;5031130;28;20367;-76
2022/01/17 01:18:11;;;;;;;20.20;2.05;;;;;;;5.24;100.00;103218.66;5026918;28;20029;-76
2022/01/17 01:28:35;;;;;;;22.73;1.88;;;;;;;5.21;100.00;103239.31;5030134;28;20040;-75
2022/01/17 01:31:03;;;;;;;19.13;2.03;;;;;;;5.21;100.00;103248.03;5024951;28;20033;-75
2022/01/17 01:33:35;;;;;;;20.65;2.85;;;;;;;5.23;100.00;103248.16;5032301;28;20030;-75
2022/01/17 01:36:06;;;;;;;16.65;2.15;;;;;;;5.22;100.00;103255.09;5025221;28;20029;-76
2022/01/17 01:38:32;;;;;;;14.70;1.67;;;;;;;5.25;100.00;103251.81;5026127;28;20033;-75
2022/01/17 01:40:58;;;;;;;12.73;1.80;;;;;;;5.23;100.00;103262.09;5024509;28;20049;-75
2022/01/17 01:43:23;;;;;;;12.63;2.08;;;;;;;5.23;100.00;103264.72;5026281;28;21770;-76
2022/01/17 01:45:50;;;;;;;14.90;1.85;;;;;;;5.23;100.00;103256.88;5029299;28;20052;-74
2022/01/17 01:48:19;;;;;;;12.98;2.22;;;;;;;5.21;100.00;103261.09;5014968;28;20037;-75
2022/01/17 01:50:46;;;;;;;14.02;1.20;;;;;;;5.22;100.00;103269.81;5018041;28;20122;-76
2022/01/17 01:53:13;;;;;;;14.80;2.55;;;;;;;5.24;100.00;103263.03;5024289;28;20073;-75
2022/01/17 01:55:38;;;;;;;16.83;1.83;;;;;;;5.18;100.00;103267.75;5028552;28;20105;-75
2022/01/17 01:58:04;;;;;;;13.70;2.53;;;;;;;5.16;100.00;103265.03;5021661;28;21027;-75
2022/01/17 02:00:30;;;;;;;16.35;2.88;;;;;;;5.12;100.00;103267.31;5021785;28;20040;-75
2022/01/17 02:02:55;;;;;;;14.25;2.10;;;;;;;5.08;100.00;103266.16;5027173;28;20091;-76
2022/01/17 02:05:20;;;;;;;20.02;2.33;;;;;;;5.02;100.00;103266.59;5018404;28;20036;-75
2022/01/17 02:07:46;;;;;;;11.98;1.55;;;;;;;5.01;100.00;103269.97;5022421;28;20057;-76
2022/01/17 02:10:12;;;;;;;15.05;1.83;;;;;;;5.03;100.00;103268.41;5019960;28;20033;-75
2022/01/17 02:12:37;;;;;;;19.13;1.70;;;;;;;5.03;100.00;103257.03;5023989;28;20026;-75
2022/01/17 02:15:04;;;;;;;15.43;2.03;;;;;;;5.04;100.00;103257.16;5026384;28;20067;-74
2022/01/17 02:17:33;;;;;;;13.30;2.40;;;;;;;5.01;100.00;103253.41;5024813;28;20025;-75
2022/01/17 02:20:07;;;;;;;18.52;2.03;;;;;;;5.02;100.00;103250.03;5022666;28;20080;-76
2022/01/17 02:22:33;;;;;;;10.88;2.10;;;;;;;5.02;100.00;103244.81;5022350;28;20030;-76
2022/01/17 02:24:59;;;;;;;10.00;2.28;;;;;;;5.04;100.00;103249.31;5030684;28;20045;-75
2022/01/17 02:27:25;;;;;;;10.95;1.60;;;;;;;5.05;100.00;103264.19;5019719;28;20053;-75
2022/01/17 02:29:51;;;;;;;15.88;2.83;;;;;;;5.04;100.00;103256.25;5026314;28;20044;-75
2022/01/17 02:32:16;;;;;;;14.77;2.10;;;;;;;5.08;100.00;103263.53;5023556;28;20470;-75
2022/01/17 02:34:42;;;;;;;11.02;2.45;;;;;;;5.12;100.00;103256.88;5022923;28;20038;-75
2022/01/17 02:37:10;;;;;;;14.25;3.22;;;;;;;5.14;100.00;103256.19;5029358;28;20031;-76
2022/01/17 02:39:35;;;;;;;13.20;1.98;;;;;;;5.15;100.00;103258.00;5021910;28;20096;-76
2022/01/17 02:42:02;;;;;;;18.75;3.47;;;;;;;5.19;100.00;103261.75;5026700;28;20038;-76
2022/01/17 02:44:28;;;;;;;15.07;2.47;;;;;;;5.19;100.00;103264.38;5023423;28;20030;-75
2022/01/17 02:46:53;;;;;;;10.35;2.40;;;;;;;5.22;100.00;103275.03;5022937;28;20083;-77
2022/01/17 02:49:18;;;;;;;10.00;2.47;;;;;;;5.20;100.00;103268.81;5028552;28;20099;-76
2022/01/17 02:51:48;;;;;;;12.85;2.20;;;;;;;5.22;100.00;103267.22;5021008;28;20556;-76
2022/01/17 02:54:13;;;;;;;14.15;2.88;;;;;;;5.21;100.00;103270.63;5025311;28;20101;-76
2022/01/17 02:56:39;;;;;;;16.83;3.17;;;;;;;5.17;100.00;103268.59;5022846;28;20029;-76
2022/01/17 02:59:04;;;;;;;18.17;2.30;;;;;;;5.16;100.00;103264.16;5028432;28;20044;-74
2022/01/17 03:01:30;;;;;;;16.63;2.42;;;;;;;5.17;100.00;103271.19;5028010;28;20021;-75
2022/01/17 03:03:56;;;;;;;13.68;2.83;;;;;;;5.17;100.00;103273.81;5024074;28;20388;-75
2022/01/17 03:06:22;;;;;;;17.27;2.67;;;;;;;5.18;100.00;103291.25;5023302;28;20037;-75
2022/01/17 03:08:47;;;;;;;20.55;3.10;;;;;;;5.19;100.00;103286.16;5022067;28;20563;-76
2022/01/17 03:11:21;;;;;;;15.35;3.25;;;;;;;5.21;100.00;103276.75;5019483;28;20385;-75
2022/01/17 03:13:48;;;;;;;14.68;3.58;;;;;;;5.24;100.00;103273.47;5027044;28;20080;-75
2022/01/17 03:16:15;;;;;;;18.30;3.58;;;;;;;5.26;100.00;103277.09;5020920;28;20076;-77
2022/01/17 03:18:44;;;;;;;20.92;4.20;;;;;;;5.30;100.00;103263.50;5021326;28;20056;-76
2022/01/17 03:21:11;;;;;;;21.40;3.85;;;;;;;5.32;100.00;103267.16;5024442;28;20025;-76
2022/01/17 03:23:39;;;;;;;25.60;4.30;;;;;;;5.33;100.00;103265.44;5029750;28;20048;-76
2022/01/17 03:26:06;;;;;;;21.27;4.05;;;;;;;5.33;100.00;103257.59;5028645;28;20036;-76
2022/01/17 03:28:32;;;;;;;30.58;4.65;;;;;;;5.35;100.00;103261.25;5022991;28;20049;-76
2022/01/17 03:30:59;;;;;;;23.35;4.47;;;;;;;5.39;100.00;103253.75;5019690;28;20054;-76
2022/01/17 03:33:25;;;;;;;17.23;4.32;;;;;;;5.43;100.00;103247.09;5025936;28;20096;-76
2022/01/17 03:35:52;;;;;;;24.08;4.63;;;;;;;5.43;100.00;103238.34;5022141;28;20026;-76
2022/01/17 03:38:20;;;;;;;17.60;4.53;;;;;;;5.49;100.00;103246.63;5020789;28;20025;-76
2022/01/17 03:40:47;;;;;;;15.52;4.80;;;;;;;5.52;100.00;103249.47;5020501;28;20053;-76
2022/01/17 03:43:13;;;;;;;14.23;4.07;;;;;;;5.52;100.00;103254.69;5022253;28;20377;-77
2022/01/17 03:45:39;;;;;;;24.30;6.65;;;;;;;5.51;100.00;103259.03;5014075;28;20075;-76
2022/01/17 03:48:04;;;;;;;31.65;5.25;;;;;;;5.52;100.00;103260.84;5039216;28;20104;-75
2022/01/17 03:50:30;;;;;;;20.15;4.85;;;;;;;5.55;100.00;103244.50;5021711;28;20049;-76
2022/01/17 03:52:56;;;;;;;17.15;4.75;;;;;;;5.53;100.00;103236.53;5027735;28;20522;-76
2022/01/17 03:55:23;;;;;;;25.05;5.40;;;;;;;5.55;100.00;103242.78;5017573;28;20503;-76
2022/01/17 03:57:49;;;;;;;21.38;5.32;;;;;;;5.54;100.00;103235.75;5026015;28;20021;-76
2022/01/17 04:00:28;;;;;;;22.42;5.70;;;;;;;5.54;100.00;103243.56;5022010;28;20080;-74
2022/01/17 04:02:54;;;;;;;20.83;5.60;;;;;;;5.53;100.00;103246.06;5019508;28;20022;-75
2022/01/17 04:05:19;;;;;;;19.42;7.65;;;;;;;5.53;100.00;103246.06;5020025;28;20029;-75
2022/01/17 04:07:45;;;;;;;23.80;5.70;;;;;;;5.48;100.00;103253.56;5025957;28;20499;-75
2022/01/17 04:10:11;;;;;;;26.73;5.95;;;;;;;5.48;100.00;103253.56;5022748;28;20036;-76
2022/01/17 04:12:36;;;;;;;22.83;6.03;;;;;;;5.46;100.00;103254.25;5022385;28;20025;-76
2022/01/17 04:15:02;;;;;;;21.02;6.15;;;;;;;5.45;100.00;103260.25;5020176;28;20465;-76
2022/01/17 04:17:29;;;;;;;24.42;6.55;;;;;;;5.41;100.00;103266.94;5024142;28;20035;-76
2022/01/17 04:20:03;;;;;;;28.80;7.28;;;;;;;5.43;100.00;103265.38;5018090;28;20467;-76
2022/01/17 04:22:31;;;;;;;28.00;7.05;;;;;;;5.39;100.00;103266.81;5022716;28;20025;-76
2022/01/17 04:24:56;;;;;;;26.45;6.10;;;;;;;5.37;100.00;103280.53;5019681;28;20026;-76
2022/01/17 04:27:21;;;;;;;21.83;7.03;;;;;;;5.37;100.00;103281.47;5020597;28;20032;-76
2022/01/17 04:29:47;;;;;;;24.25;7.10;;;;;;;5.37;100.00;103291.91;5017730;28;20055;-75
2022/01/17 04:32:12;;;;;;;27.52;6.90;;;;;;;5.35;100.00;103287.38;5016189;28;20030;-75
2022/01/17 04:34:38;;;;;;;26.30;6.65;;;;;;;5.38;100.00;103291.09;5022193;28;20048;-75
2022/01/17 04:37:03;;;;;;;15.20;5.90;;;;;;;5.41;100.00;103293.03;5018912;28;20025;-75
2022/01/17 04:39:28;;;;;;;19.02;6.55;;;;;;;5.39;100.00;103294.63;5020473;28;20410;-76
2022/01/17 04:41:56;;;;;;;28.08;7.95;;;;;;;5.37;100.00;103288.38;5024845;28;20044;-75
2022/01/17 04:47:06;;;;;;;;;;;;;;;5.34;100.00;103280.31;5026788;28;20033;-75
2022/01/17 04:49:31;;;;;;;21.42;7.20;;;;;;;5.33;100.00;103274.19;5031680;28;19921;-74
2022/01/17 04:51:56;;;;;;;30.75;6.95;;;;;;;5.34;100.00;103276.00;5029214;28;20518;-75
2022/01/17 04:56:56;;;;;;;32.17;7.10;;;;;;;5.38;100.00;103296.31;5025805;28;20063;-75
2022/01/17 04:59:21;;;;;;;29.98;6.40;;;;;;;5.38;100.00;103288.50;5030220;28;20501;-76
2022/01/17 05:01:47;;;;;;;25.10;7.20;;;;;;;5.40;100.00;103291.25;5021396;28;20030;-74
2022/01/17 05:04:12;;;;;;;28.80;7.07;;;;;;;5.45;100.00;103282.03;5030821;28;20404;-75
2022/01/17 05:06:38;;;;;;;22.23;6.25;;;;;;;5.46;100.00;103282.97;5028852;28;20773;-75
2022/01/17 05:09:04;;;;;;;31.27;6.80;;;;;;;5.48;100.00;103283.97;5031612;28;20021;-75
2022/01/17 05:11:31;;;;;;;17.23;5.75;;;;;;;5.51;100.00;103294.69;5022935;28;20076;-75
2022/01/17 05:13:56;;;;;;;28.00;6.47;;;;;;;5.52;100.00;103291.25;5030003;28;20030;-75
2022/01/17 05:16:29;;;;;;;23.95;6.82;;;;;;;5.51;100.00;103289.47;5024661;28;20106;-75
2022/01/17 05:21:38;;;;;;;31.15;11.30;;;;;;;5.56;100.00;103298.53;5027068;28;20032;-75
2022/01/17 05:24:04;;;;;;;29.88;9.85;;;;;;;5.60;100.00;103305.81;5023995;28;20554;-76
2022/01/17 05:26:29;;;;;;;29.55;9.60;;;;;;;5.64;100.00;103296.50;5020194;28;20030;-76
2022/01/17 05:28:54;;;;;;;30.90;12.45;;;;;;;5.64;100.00;103297.41;5027454;28;20030;-76
2022/01/17 05:31:20;;;;;;;34.67;12.02;;;;;;;5.67;100.00;103299.34;5017158;28;20057;-75
2022/01/17 05:33:45;;;;;;;26.42;12.85;;;;;;;5.72;100.00;103301.56;5026052;28;20417;-75
2022/01/17 05:36:10;;;;;;;33.63;14.38;;;;;;;5.69;100.00;103306.53;5027828;28;20026;-74
2022/01/17 05:38:36;;;;;;;33.88;16.90;;;;;;;5.72;100.00;103300.63;5022498;28;20496;-75
2022/01/17 05:41:01;;;;;;;35.20;15.65;;;;;;;5.70;100.00;103297.91;5024731;28;20524;-75
2022/01/17 05:43:26;;;;;;;40.47;16.20;;;;;;;5.69;100.00;103290.84;5022011;28;20029;-74
2022/01/17 05:45:52;;;;;;;38.45;17.02;;;;;;;5.69;100.00;103280.41;5023604;28;20474;-75
2022/01/17 05:48:17;;;;;;;39.95;16.25;;;;;;;5.64;100.00;103276.50;5021945;28;20436;-75
2022/01/17 05:50:43;;;;;;;38.15;16.48;;;;;;;5.64;100.00;103281.75;5027794;28;20033;-75
2022/01/17 05:53:10;;;;;;;50.55;17.63;;;;;;;5.61;100.00;103276.28;5023983;28;20037;-75
2022/01/17 05:55:35;;;;;;;40.65;18.50;;;;;;;5.61;100.00;103289.34;5016215;28;20026;-75
2022/01/17 05:58:02;;;;;;;41.90;17.95;;;;;;;5.60;100.00;103292.75;5024985;28;20094;-75
2022/01/17 06:00:28;;;;;;;37.20;17.75;;;;;;;5.57;100.00;103305.59;5021861;28;20022;-75
2022/01/17 06:02:53;;;;;;;37.80;17.92;;;;;;;5.60;100.00;103295.34;5024049;28;20056;-75
2022/01/17 06:05:18;;;;;;;38.88;17.15;;;;;;;5.57;100.00;103300.34;5022515;28;20036;-75
2022/01/17 06:07:44;;;;;;;40.88;18.17;;;;;;;5.52;100.00;103301.69;5029172;28;20474;-75
2022/01/17 06:10:09;;;;;;;43.08;17.65;;;;;;;5.49;100.00;103318.03;5043010;28;20418;-74
2022/01/17 06:12:35;;;;;;;41.33;19.73;;;;;;;5.50;100.00;103325.09;5023894;28;20038;-75
2022/01/17 06:15:00;;;;;;;36.85;17.05;;;;;;;5.50;100.00;103324.19;5025468;28;20033;-75
2022/01/17 06:17:26;;;;;;;35.83;17.13;;;;;;;5.43;100.00;103327.13;5018934;28;20109;-76
2022/01/17 06:19:51;;;;;;;40.15;18.05;;;;;;;5.39;100.00;103329.47;5024470;28;20033;-76
2022/01/17 06:22:16;;;;;;;36.00;15.27;;;;;;;5.36;100.00;103331.84;5021522;28;20030;-76
2022/01/17 06:24:42;;;;;;;38.72;16.70;;;;;;;5.34;100.00;103332.53;5020570;28;20040;-76
2022/01/17 06:27:07;;;;;;;40.97;17.83;;;;;;;5.32;100.00;103334.13;5019818;28;20021;-76
2022/01/17 06:29:33;;;;;;;41.60;16.30;;;;;;;5.28;100.00;103335.56;5025629;28;20117;-76
2022/01/17 06:31:58;;;;;;;38.45;15.18;;;;;;;5.25;100.00;103335.34;5022723;28;20309;-76
2022/01/17 06:34:24;;;;;;;42.15;16.33;;;;;;;5.23;100.00;103327.38;5023289;28;20063;-76
2022/01/17 06:36:49;;;;;;;37.55;13.55;;;;;;;5.22;100.00;103349.06;5021468;28;20037;-76
2022/01/17 06:39:15;;;;;;;40.38;13.48;;;;;;;5.24;100.00;103346.56;4981540;28;1097144;-76
2022/01/17 06:41:40;;;;;;;38.25;13.07;;;;;;;5.24;100.00;103337.03;5023177;28;20084;-76
2022/01/17 06:44:06;;;;;;;39.30;11.18;;;;;;;5.22;100.00;103328.19;5012550;28;20055;-75
2022/01/17 06:46:32;;;;;;;30.15;10.55;;;;;;;5.21;100.00;103328.06;5022578;28;20061;-76
2022/01/17 06:48:57;;;;;;;28.67;9.93;;;;;;;5.21;100.00;103321.13;5031138;28;20033;-75
2022/01/17 06:51:23;;;;;;;26.10;8.40;;;;;;;5.23;100.00;103334.28;5023791;28;20123;-74
2022/01/17 06:53:50;;;;;;;28.92;7.55;;;;;;;5.21;100.00;103341.13;5023490;28;20036;-75
2022/01/17 06:56:16;;;;;;;21.50;6.53;;;;;;;5.21;100.00;103357.69;5025352;28;20377;-76
2022/01/17 06:58:42;;;;;;;24.98;5.97;;;;;;;5.20;100.00;103365.38;5026214;28;20026;-75
2022/01/17 07:01:08;;;;;;;20.15;5.32;;;;;;;5.21;100.00;103367.22;5021487;28;20029;-75
2022/01/17 07:03:34;;;;;;;26.65;5.78;;;;;;;5.20;100.00;103378.44;5026476;28;20060;-75
2022/01/17 07:05:59;;;;;;;28.58;5.80;;;;;;;5.17;100.00;103386.03;5025544;28;20033;-75
2022/01/17 07:08:24;;;;;;;17.73;5.70;;;;;;;5.18;100.00;103387.84;5019864;28;20033;-75
2022/01/17 07:10:50;;;;;;;18.90;4.43;;;;;;;5.18;100.00;103383.53;5022515;28;20482;-75
2022/01/17 07:13:15;;;;;;;24.67;5.47;;;;;;;5.18;100.00;103386.16;5021956;28;20045;-75
2022/01/17 07:15:41;;;;;;;16.88;4.68;;;;;;;5.17;100.00;103388.66;5026128;28;20068;-76
2022/01/17 07:18:06;;;;;;;20.38;4.28;;;;;;;5.14;100.00;103396.22;5024414;28;20030;-74
2022/01/17 07:20:32;;;;;;;27.15;5.38;;;;;;;5.15;100.00;103388.50;5018665;28;20033;-74
2022/01/17 07:22:58;;;;;;;23.20;4.55;;;;;;;5.14;100.00;103373.66;5018902;28;20041;-71
2022/01/17 07:25:23;;;;;;;20.85;4.63;;;;;;;5.16;100.00;103372.06;5024754;28;20152;-71
2022/01/17 07:27:48;;;;;;;22.33;5.38;;;;;;;5.19;100.00;103379.22;5026093;28;20386;-72
2022/01/17 07:30:13;;;;;;;27.50;4.60;;;;;;;5.24;100.00;103388.34;5028908;28;20534;-71
2022/01/17 07:32:39;;;;;;;27.40;4.47;;;;;;;5.28;100.00;103394.72;5017898;28;20034;-71
2022/01/17 07:35:06;;;;;;;16.77;4.53;;;;;;;5.33;100.00;103393.34;5019133;28;20036;-71
2022/01/17 07:37:31;;;;;;;23.10;5.00;;;;;;;5.34;100.00;103422.19;5027668;28;20115;-72
2022/01/17 07:39:57;;;;;;;21.40;4.47;;;;;;;5.38;100.00;103421.66;5025283;28;20464;-70
2022/01/17 07:42:22;;;;;;;23.45;4.57;;;;;;;5.42;100.00;103425.44;5018630;28;20022;-70
2022/01/17 07:44:53;;;;;;;22.83;4.32;;;;;;;5.45;100.00;103414.31;5022575;28;20038;-70
2022/01/17 07:47:25;;;;;;;29.63;4.93;;;;;;;5.49;100.00;103411.16;5026718;28;20041;-70
2022/01/17 07:49:51;;;;;;;27.67;4.78;;;;;;;5.54;100.00;103410.72;5018310;28;20396;-72
2022/01/17 07:52:16;;;;;;;21.25;5.97;;;;;;;5.57;100.00;103423.13;5024464;28;20029;-72
2022/01/17 07:54:44;;;;;;;25.15;4.25;;;;;;;5.66;100.00;103430.78;5020908;28;20092;-71
2022/01/17 07:57:11;;;;;;;31.63;5.50;;;;;;;5.68;100.00;103426.56;5023733;28;20462;-72
2022/01/17 07:59:37;;;;;;;19.08;4.63;;;;;;;5.66;100.00;103421.22;5024739;28;20440;-73
2022/01/17 08:02:02;;;;;;;24.02;4.28;;;;;;;5.67;100.00;103423.06;5023175;28;20045;-73
2022/01/17 08:04:28;;;;;;;30.42;4.93;;;;;;;5.70;100.00;103438.97;5023092;28;20037;-72
2022/01/17 08:06:55;;;;;;;34.38;5.03;;;;;;;5.76;100.00;103438.53;5019781;28;20129;-72
2022/01/17 08:09:25;;;;;;;21.95;4.38;;;;;;;5.79;100.00;103430.03;5018124;28;20539;-71
2022/01/17 08:11:51;;;;;;;28.38;4.25;;;;;;;5.83;100.00;103432.09;5020276;28;20025;-74
2022/01/17 08:14:16;;;;;;;19.02;3.80;;;;;;;5.87;100.00;103442.91;5025227;28;20033;-71
2022/01/17 08:16:42;;;;;;;32.30;4.22;;;;;;;5.92;100.00;103443.25;5018750;28;20022;-73
2022/01/17 08:19:07;;;;;;;33.35;5.28;;;;;;;5.96;100.00;103442.69;5023571;28;20037;-72
2022/01/17 08:21:32;;;;;;;21.02;4.15;;;;;;;5.98;100.00;103446.38;5019255;28;20026;-72
2022/01/17 08:24:00;;;;;;;27.77;4.38;;;;;;;6.01;100.00;103438.78;5023516;28;20084;-73
2022/01/17 08:26:25;;;;;;;26.48;3.83;;;;;;;6.02;100.00;103443.22;5025348;28;20021;-72
2022/01/17 08:28:52;;;;;;;32.97;4.78;;;;;;;6.05;100.00;103453.91;5025155;28;20521;-73
2022/01/17 08:31:17;;;;;;;33.60;5.68;;;;;;;6.07;100.00;103447.06;5017240;28;20021;-72
2022/01/17 08:33:42;;;;;;;21.45;3.50;;;;;;;6.10;100.00;103445.50;5021278;28;20145;-73
2022/01/17 08:36:08;;;;;;;35.05;5.20;;;;;;;6.14;100.00;103447.56;5029468;28;20029;-73
2022/01/17 08:38:35;;;;;;;28.08;4.97;;;;;;;6.19;100.00;103435.75;5016259;28;20032;-71
2022/01/17 08:41:00;;;;;;;21.13;3.60;;;;;;;6.27;100.00;103431.09;5023360;28;20071;-73
2022/01/17 08:43:26;;;;;;;35.65;5.28;;;;;;;6.29;100.00;103427.81;5026438;28;20029;-73
2022/01/17 08:45:53;;;;;;;27.70;3.85;;;;;;;6.31;100.00;103436.69;5023865;28;20030;-73
2022/01/17 08:48:19;;;;;;;21.90;3.55;;;;;;;6.34;100.00;103436.91;5026107;28;20025;-73
2022/01/17 08:50:47;;;;;;;22.65;3.72;;;;;;;6.37;100.00;103442.38;5024998;28;20385;-74
2022/01/17 08:53:13;;;;;;;27.92;4.45;;;;;;;6.36;100.00;103443.19;5027937;28;20485;-74
2022/01/17 08:55:42;;;;;;;26.85;5.18;;;;;;;6.43;100.00;103446.25;5018256;28;20026;-72
2022/01/17 08:58:08;;;;;;;25.98;4.65;;;;;;;6.48;100.00;103450.13;5015158;28;20017;-72
2022/01/17 09:00:34;;;;;;;20.55;3.40;;;;;;;6.50;100.00;103457.28;5017958;28;20044;-72
2022/01/17 09:03:02;;;;;;;30.83;5.03;;;;;;;6.56;100.00;103459.47;5023696;28;20378;-73
2022/01/17 09:05:32;;;;;;;30.90;4.50;;;;;;;6.60;100.00;103465.84;5006026;28;20463;-73
2022/01/17 09:07:58;;;;;;;20.58;4.93;;;;;;;6.61;100.00;103465.94;5015697;28;20033;-74
2022/01/17 09:10:25;;;;;;;22.25;3.83;;;;;;;6.65;100.00;103474.94;5020419;28;20052;-73
2022/01/17 09:12:52;;;;;;;26.52;3.58;;;;;;;6.73;100.00;103469.47;5012544;28;20030;-73
2022/01/17 09:15:17;;;;;;;33.40;4.63;;;;;;;6.77;100.00;103473.25;5014680;28;20434;-73
2022/01/17 09:17:43;;;;;;;42.05;5.25;;;;;;;6.81;100.00;103487.44;5014983;28;20030;-73
2022/01/17 09:20:09;;;;;;;28.92;5.45;;;;;;;6.80;100.00;103497.03;5029458;28;20069;-73
2022/01/17 09:22:34;;;;;;;21.77;4.00;;;;;;;6.81;100.00;103492.69;5027718;28;20032;-70
2022/01/17 09:25:00;;;;;;;23.23;3.53;;;;;;;6.83;100.00;103498.97;5020795;28;20022;-73
2022/01/17 09:27:26;;;;;;;25.30;3.70;;;;;;;6.88;100.00;103510.69;5022917;28;20034;-72
2022/01/17 09:29:52;;;;;;;24.60;3.85;;;;;;;6.94;100.00;103512.84;5020752;28;20513;-73
2022/01/17 09:32:17;;;;;;;23.15;3.28;;;;;;;6.96;100.00;103508.63;5021604;28;20498;-73
2022/01/17 09:34:43;;;;;;;37.30;4.00;;;;;;;7.02;100.00;103509.09;5028263;28;20120;-74
2022/01/17 09:37:09;;;;;;;25.67;3.20;;;;;;;7.00;100.00;103511.59;5034425;28;20037;-72
2022/01/17 09:39:38;;;;;;;27.25;4.82;;;;;;;7.05;100.00;103510.25;5025979;28;20066;-74
2022/01/17 09:42:05;;;;;;;21.00;3.20;;;;;;;7.04;100.00;103503.19;5020445;28;20349;-71
2022/01/17 09:44:32;;;;;;;20.23;3.40;;;;;;;7.03;100.00;103503.06;5023483;28;20034;-72
2022/01/17 09:46:58;;;;;;;33.33;4.13;;;;;;;7.09;100.00;103516.59;5016766;28;20466;-71
2022/01/17 09:49:35;;;;;;;22.08;4.47;;;;;;;7.17;100.00;103519.78;5030108;28;20024;-70
2022/01/17 09:54:42;;;;;;;28.58;3.63;;;;;;;7.26;100.00;103536.19;5027469;28;20768;-72
2022/01/17 09:57:08;;;;;;;25.20;3.42;;;;;;;7.30;100.00;103533.00;5021374;28;20379;-72
2022/01/17 09:59:36;;;;;;;26.23;4.65;;;;;;;7.32;100.00;103539.25;5024584;28;20030;-72
2022/01/17 10:02:03;;;;;;;31.75;3.78;;;;;;;7.40;100.00;103529.34;5024670;28;20128;-72
2022/01/17 10:04:29;;;;;;;31.42;3.70;;;;;;;7.40;100.00;103545.94;5030471;28;20422;-72
2022/01/17 10:06:56;;;;;;;19.80;3.85;;;;;;;7.52;100.00;103551.19;5025854;28;20514;-72
2022/01/17 10:09:24;;;;;;;20.08;3.38;;;;;;;7.58;100.00;103537.59;5023839;28;20029;-72
2022/01/17 10:12:07;;;;;;;20.92;3.90;;;;;;;7.52;100.00;103553.81;5020101;28;20562;-72
2022/01/17 10:14:43;;;;;;;24.08;3.35;;;;;;;7.60;100.00;103549.13;5024172;28;20067;-77
2022/01/17 10:17:11;;;;;;;23.77;4.75;;;;;;;7.67;100.00;103546.13;5024465;28;20057;-71
2022/01/17 10:19:38;;;;;;;25.17;3.70;;;;;;;7.74;100.00;103547.50;5026416;28;20036;-72
2022/01/17 10:22:11;;;;;;;28.20;4.85;;;;;;;7.72;100.00;103560.50;5024210;28;20064;-73
2022/01/17 10:24:48;;;;;;;24.92;4.00;;;;;;;7.71;100.00;103563.91;5022234;28;20033;-72
2022/01/17 10:27:39;;;;;;;26.60;3.20;;;;;;;7.69;100.00;103559.34;5028566;28;20116;-72
2022/01/17 10:30:39;;;;;;;23.63;3.00;;;;;;;7.64;100.00;103561.66;5022185;28;20041;-72
2022/01/17 10:35:51;;;;;;;18.15;3.00;;;;;;;7.73;100.00;103567.56;5025291;28;20558;-72
2022/01/17 10:38:21;;;;;;;28.77;3.55;;;;;;;7.67;100.00;103566.22;5027584;28;20025;-72
2022/01/17 10:41:02;;;;;;;20.33;2.97;;;;;;;7.73;100.00;103564.00;5023674;28;20494;-72
2022/01/17 10:43:38;;;;;;;21.40;3.67;;;;;;;7.73;100.00;103562.31;5027487;28;20033;-71
2022/01/17 10:46:09;;;;;;;17.50;3.13;;;;;;;7.82;100.00;103561.16;5028649;28;20379;-72
2022/01/17 10:48:38;;;;;;;23.65;3.90;;;;;;;7.73;100.00;103566.63;5022641;28;20025;-73
2022/01/17 10:51:06;;;;;;;26.10;3.60;;;;;;;7.80;100.00;103558.44;5025036;28;20112;-72
2022/01/17 10:53:32;;;;;;;34.67;4.80;;;;;;;7.80;100.00;103566.28;5032069;28;20032;-72
2022/01/17 10:56:05;;;;;;;17.95;2.95;;;;;;;7.85;100.00;103564.88;5019327;28;20025;-71
2022/01/17 10:58:31;;;;;;;21.67;4.10;;;;;;;7.86;100.00;103573.69;5025106;28;20108;-69
2022/01/17 11:01:00;;;;;;;26.98;3.15;;;;;;;7.88;100.00;103577.31;5024525;28;20029;-71
2022/01/17 11:03:28;;;;;;;32.25;4.05;;;;;;;7.95;100.00;103574.34;5020364;28;20025;-71
2022/01/17 11:05:55;;;;;;;27.55;3.08;;;;;;;7.95;100.00;103576.97;5023806;28;20025;-72
2022/01/17 11:08:32;;;;;;;18.50;3.85;;;;;;;8.00;100.00;103578.19;5023158;28;20041;-72
2022/01/17 11:10:59;;;;;;;27.08;3.92;;;;;;;8.07;100.00;103596.19;5021455;28;20022;-72
2022/01/17 11:13:28;;;;;;;23.45;4.07;;;;;;;8.13;100.00;103600.06;5021161;28;20029;-72
2022/01/17 11:15:59;;;;;;;27.00;3.50;;;;;;;8.03;100.00;103604.66;5023856;28;20034;-72
2022/01/17 11:18:28;;;;;;;18.70;3.03;;;;;;;8.02;100.00;103596.69;5017530;28;20086;-71
2022/01/17 11:20:57;;;;;;;18.80;3.70;;;;;;;8.06;100.00;103597.00;5025799;28;20032;-72
2022/01/17 11:23:23;;;;;;;27.15;4.07;;;;;;;8.09;100.00;103594.56;5024001;28;20040;-72
2022/01/17 11:25:55;;;;;;;23.20;3.80;;;;;;;8.01;100.00;103590.50;5020228;28;20045;-73
2022/01/17 11:28:26;;;;;;;25.88;3.38;;;;;;;8.01;100.00;103595.75;5021199;28;20551;-72
2022/01/17 11:30:54;;;;;;;27.15;3.75;;;;;;;8.04;100.00;103590.72;5022821;28;20045;-72
2022/01/17 11:33:20;;;;;;;20.38;4.30;;;;;;;8.04;100.00;103595.97;5024373;28;20029;-73
2022/01/17 11:35:51;;;;;;;22.65;3.30;;;;;;;8.04;100.00;103598.56;5022974;28;20045;-73
2022/01/17 11:38:20;;;;;;;29.42;4.32;;;;;;;8.02;100.00;103596.69;5025038;28;20017;-72
2022/01/17 11:40:46;;;;;;;29.10;4.00;;;;;;;8.05;100.00;103600.41;5022925;28;20144;-72